Time;durP1;ratioP1;P1;durP2;ratioP2;P2;SDS_P1;SDS_P2;PMS_P1;PMS_P2;Temp;Humidity;BMP_temperature;BMP_pressure;BME280_temperature;BME280_humidity;BME280_pressure;Samples;Min_cycle;Max_cycle;Signal;HPM_P1;HPM_P2
2021/12/22 00:01:39;;;;;;;60.42;33.33;;;;;;;0.16;100.00;98708.16;5101470;28;20028;-74
2021/12/22 00:04:05;;;;;;;57.58;31.48;;;;;;;0.18;100.00;98706.91;5109966;28;20047;-77
2021/12/22 00:06:33;;;;;;;61.35;32.22;;;;;;;0.21;100.00;98701.13;5112373;28;20435;-73
2021/12/22 00:08:59;;;;;;;57.08;31.95;;;;;;;0.20;100.00;98709.38;5111710;28;20102;-74
2021/12/22 00:11:25;;;;;;;67.25;30.92;;;;;;;0.14;100.00;98699.47;5112491;28;20565;-77
2021/12/22 00:13:51;;;;;;;54.90;30.92;;;;;;;0.10;100.00;98703.59;5109284;28;20036;-75
2021/12/22 00:16:16;;;;;;;55.85;28.85;;;;;;;0.18;100.00;98704.22;5096570;28;20048;-75
2021/12/22 00:18:43;;;;;;;53.53;28.30;;;;;;;0.06;100.00;98707.78;5093584;28;20046;-74
2021/12/22 00:21:10;;;;;;;50.13;27.27;;;;;;;0.07;100.00;98714.78;5110398;28;20015;-74
2021/12/22 00:23:37;;;;;;;53.10;27.10;;;;;;;0.13;100.00;98708.56;5113198;28;20088;-75
2021/12/22 00:26:03;;;;;;;53.17;27.80;;;;;;;0.12;100.00;98712.31;5113414;28;20093;-74
2021/12/22 00:28:28;;;;;;;43.25;25.58;;;;;;;0.00;100.00;98712.94;5113698;28;20058;-75
2021/12/22 00:30:54;;;;;;;45.72;26.38;;;;;;;-0.06;100.00;98713.78;5113987;28;20480;-75
2021/12/22 00:33:22;;;;;;;43.65;25.58;;;;;;;-0.01;100.00;98716.69;5115235;28;20026;-77
2021/12/22 00:35:48;;;;;;;48.53;26.10;;;;;;;-0.08;100.00;98707.78;5115817;28;22082;-75
2021/12/22 00:38:19;;;;;;;45.60;23.67;;;;;;;-0.02;100.00;98714.19;5113593;28;20068;-77
2021/12/22 00:40:46;;;;;;;55.55;26.95;;;;;;;-0.09;100.00;98710.66;5113679;28;20016;-75
2021/12/22 00:43:12;;;;;;;41.85;23.42;;;;;;;-0.02;100.00;98711.50;5113538;28;20110;-74
2021/12/22 00:45:38;;;;;;;45.17;23.70;;;;;;;-0.11;100.00;98718.94;5113200;28;20110;-76
2021/12/22 00:48:05;;;;;;;42.55;23.75;;;;;;;-0.11;100.00;98713.59;5113183;28;20034;-75
2021/12/22 00:50:31;;;;;;;38.83;21.50;;;;;;;-0.06;100.00;98705.69;5111969;28;20498;-76
2021/12/22 00:52:57;;;;;;;40.78;20.95;;;;;;;-0.15;100.00;98706.97;5111766;28;20094;-75
2021/12/22 00:55:22;;;;;;;41.92;23.10;;;;;;;-0.14;100.00;98714.00;5111544;28;20110;-76
2021/12/22 00:57:49;;;;;;;42.60;23.45;;;;;;;0.00;100.00;98710.25;5112612;27;20451;-74
2021/12/22 01:00:17;;;;;;;42.90;23.05;;;;;;;-0.13;100.00;98715.66;5113484;28;20832;-75
2021/12/22 01:02:43;;;;;;;40.38;22.65;;;;;;;-0.13;100.00;98715.66;5113265;28;20028;-77
2021/12/22 01:05:12;;;;;;;40.70;22.02;;;;;;;-0.09;100.00;98722.25;5112408;28;20028;-75
2021/12/22 01:07:38;;;;;;;42.05;20.35;;;;;;;-0.25;100.00;98711.91;5107271;28;20089;-78
2021/12/22 01:10:05;;;;;;;40.17;22.27;;;;;;;-0.27;100.00;98713.16;5112701;28;20026;-76
2021/12/22 01:12:31;;;;;;;36.72;19.83;;;;;;;-0.23;100.00;98715.25;5113033;28;20055;-76
2021/12/22 01:14:56;;;;;;;37.90;20.27;;;;;;;-0.32;100.00;98711.13;5112794;28;20056;-76
2021/12/22 01:17:22;;;;;;;39.22;20.02;;;;;;;-0.42;100.00;98715.25;5112451;28;20046;-76
2021/12/22 01:19:58;;;;;;;35.90;18.88;;;;;;;-0.37;100.00;98726.19;5112748;28;20096;-76
2021/12/22 01:22:32;;;;;;;35.70;18.50;;;;;;;-0.49;100.00;98720.63;5112302;28;20023;-76
2021/12/22 01:25:03;;;;;;;35.58;18.05;;;;;;;-0.50;100.00;98724.31;5112766;27;20123;-76
2021/12/22 01:27:36;;;;;;;33.85;18.33;;;;;;;-0.49;100.00;98723.28;5112449;28;20098;-75
2021/12/22 01:30:09;;;;;;;35.03;18.52;;;;;;;-0.50;100.00;98737.75;5112263;28;20028;-75
2021/12/22 01:32:35;;;;;;;35.40;18.65;;;;;;;-0.49;100.00;98725.97;5112370;28;20788;-74
2021/12/22 01:35:01;;;;;;;39.15;19.73;;;;;;;-0.41;100.00;98733.84;5111873;28;20438;-75
2021/12/22 01:37:26;;;;;;;34.83;19.42;;;;;;;-0.48;100.00;98735.72;5111914;28;20031;-75
2021/12/22 01:39:52;;;;;;;36.78;19.15;;;;;;;-0.39;100.00;98733.63;5110957;28;20081;-75
2021/12/22 01:42:17;;;;;;;43.50;19.33;;;;;;;-0.47;100.00;98742.72;5111720;28;20023;-76
2021/12/22 01:50:32;;;;;;;42.40;23.35;;;;;;;-0.41;100.00;98739.22;5108492;28;20119;-75
2021/12/22 01:53:04;;;;;;;46.65;23.05;;;;;;;-0.34;100.00;98747.28;5111147;28;20132;-78
2021/12/22 01:55:36;;;;;;;40.65;20.42;;;;;;;-0.37;100.00;98740.44;5112567;28;20031;-76
2021/12/22 01:58:05;;;;;;;39.85;20.73;;;;;;;-0.36;100.00;98752.88;5112244;28;20030;-78
2021/12/22 02:00:31;;;;;;;41.47;20.65;;;;;;;-0.42;100.00;98751.00;5110523;28;20024;-74
2021/12/22 02:02:56;;;;;;;37.13;19.88;;;;;;;-0.31;100.00;98750.38;5112176;28;20518;-74
2021/12/22 02:05:22;;;;;;;35.33;20.42;;;;;;;-0.33;100.00;98748.94;5115542;28;20552;-77
2021/12/22 02:07:49;;;;;;;44.00;21.92;;;;;;;-0.30;100.00;98768.16;5112909;28;20020;-76
2021/12/22 02:10:36;;;;;;;38.28;21.02;;;;;;;-0.36;100.00;98757.41;5111280;27;20488;-75
2021/12/22 02:13:03;;;;;;;36.42;19.58;;;;;;;-0.44;100.00;98760.31;5110495;28;20038;-76
2021/12/22 02:15:33;;;;;;;41.55;19.50;;;;;;;-0.42;100.00;98748.31;5111356;28;20027;-77
2021/12/22 02:18:02;;;;;;;38.58;20.17;;;;;;;-0.37;100.00;98758.44;5111373;28;20078;-74
2021/12/22 02:20:28;;;;;;;39.92;20.50;;;;;;;-0.44;100.00;98750.41;5110059;28;20537;-77
2021/12/22 02:22:55;;;;;;;39.78;19.73;;;;;;;-0.56;100.00;98750.16;5111360;28;20055;-74
2021/12/22 02:25:30;;;;;;;33.92;18.95;;;;;;;-0.52;100.00;98755.13;5111446;28;20023;-76
2021/12/22 02:27:56;;;;;;;34.72;19.95;;;;;;;-0.68;100.00;98748.28;5110437;28;20023;-76
2021/12/22 02:30:27;;;;;;;33.80;18.20;;;;;;;-0.59;100.00;98752.41;5110213;28;20030;-75
2021/12/22 02:35:41;;;;;;;36.72;18.85;;;;;;;-0.60;100.00;98754.31;5111204;28;20024;-75
2021/12/22 02:38:13;;;;;;;37.90;20.48;;;;;;;-0.66;100.00;98746.22;5111065;28;20027;-76
2021/12/22 02:40:39;;;;;;;39.20;20.27;;;;;;;-0.60;100.00;98750.78;5111018;28;20103;-75
2021/12/22 02:43:05;;;;;;;32.85;18.63;;;;;;;-0.63;100.00;98745.81;5111102;28;20578;-75
2021/12/22 02:45:33;;;;;;;34.33;18.88;;;;;;;-0.61;100.00;98754.50;5112585;28;20028;-76
2021/12/22 02:47:59;;;;;;;37.58;18.75;;;;;;;-0.64;100.00;98745.00;5117076;28;20045;-75
2021/12/22 02:50:25;;;;;;;38.88;19.70;;;;;;;-0.67;100.00;98747.25;5113341;28;20114;-76
2021/12/22 02:55:26;;;;;;;37.90;19.95;;;;;;;-0.70;100.00;98753.03;5110908;28;20038;-75
2021/12/22 02:57:55;;;;;;;34.73;18.90;;;;;;;-0.58;100.00;98751.41;5110603;28;20519;-76
2021/12/22 03:00:34;;;;;;;34.97;19.50;;;;;;;-0.60;100.00;98750.78;5109504;28;20473;-75
2021/12/22 03:03:09;;;;;;;36.78;18.98;;;;;;;-0.53;100.00;98753.47;5110957;27;20024;-76
2021/12/22 03:05:36;;;;;;;;;;;;;;;-0.49;100.00;98758.22;5109351;28;20027;-75
2021/12/22 03:08:02;;;;;;;39.40;18.75;;;;;;;-0.50;100.00;98759.25;5107696;28;19918;-75
2021/12/22 03:10:28;;;;;;;37.35;18.75;;;;;;;-0.53;100.00;98756.97;5110494;27;20073;-76
2021/12/22 03:13:01;;;;;;;35.15;19.25;;;;;;;-0.53;100.00;98765.03;5110473;28;20039;-75
2021/12/22 03:15:26;;;;;;;33.28;17.77;;;;;;;-0.47;100.00;98766.88;5110686;28;20027;-78
2021/12/22 03:17:51;;;;;;;37.28;19.30;;;;;;;-0.48;100.00;98765.25;5109058;28;20020;-75
2021/12/22 03:20:17;;;;;;;33.72;19.58;;;;;;;-0.44;100.00;98776.44;5110252;28;20661;-75
2021/12/22 03:22:45;;;;;;;36.90;19.65;;;;;;;-0.38;100.00;98776.44;5108842;28;20032;-74
2021/12/22 03:25:17;;;;;;;37.08;20.40;;;;;;;-0.40;100.00;98772.28;5106040;28;20051;-76
2021/12/22 03:27:48;;;;;;;42.08;20.85;;;;;;;-0.38;100.00;98759.47;5109142;28;20430;-75
2021/12/22 03:30:16;;;;;;;46.55;22.33;;;;;;;-0.32;100.00;98762.19;5109550;28;20032;-75
2021/12/22 03:32:42;;;;;;;41.05;22.20;;;;;;;-0.40;100.00;98767.72;5109298;28;20039;-75
2021/12/22 03:35:14;;;;;;;41.90;21.05;;;;;;;-0.44;100.00;98761.13;5109661;28;20589;-76
2021/12/22 03:37:40;;;;;;;36.33;20.02;;;;;;;-0.54;100.00;98758.03;5109895;28;20027;-76
2021/12/22 03:40:06;;;;;;;46.10;21.05;;;;;;;-0.55;100.00;98764.41;5109843;28;20024;-77
2021/12/22 03:42:31;;;;;;;38.53;19.98;;;;;;;-0.49;100.00;98763.59;5109639;28;20035;-75
2021/12/22 03:44:56;;;;;;;39.83;20.63;;;;;;;-0.44;100.00;98765.69;5110606;28;20073;-75
2021/12/22 03:47:22;;;;;;;35.80;20.73;;;;;;;-0.40;100.00;98778.47;5111132;28;20712;-75
2021/12/22 03:49:49;;;;;;;39.22;21.45;;;;;;;-0.31;100.00;98782.63;5110186;28;20023;-74
2021/12/22 03:52:15;;;;;;;37.95;19.77;;;;;;;-0.34;100.00;98777.66;5095444;28;20020;-78
2021/12/22 03:54:41;;;;;;;39.03;19.98;;;;;;;-0.29;100.00;98785.13;5109986;28;20127;-76
2021/12/22 03:57:06;;;;;;;36.85;20.80;;;;;;;-0.27;100.00;98786.56;5109025;28;20102;-74
2021/12/22 03:59:31;;;;;;;34.17;19.08;;;;;;;-0.36;100.00;98784.28;5114041;28;20054;-77
2021/12/22 04:01:57;;;;;;;37.30;19.42;;;;;;;-0.35;100.00;98773.34;5110979;28;20361;-77
2021/12/22 04:04:22;;;;;;;35.70;19.20;;;;;;;-0.39;100.00;98773.94;5109913;28;20495;-74
2021/12/22 04:06:50;;;;;;;35.58;18.50;;;;;;;-0.42;100.00;98775.19;5109538;28;20093;-77
2021/12/22 04:09:16;;;;;;;37.47;19.13;;;;;;;-0.39;100.00;98785.53;5108460;28;20027;-75
2021/12/22 04:11:42;;;;;;;35.03;18.80;;;;;;;-0.46;100.00;98790.06;5109810;28;20055;-75
2021/12/22 04:14:09;;;;;;;35.58;19.10;;;;;;;-0.40;100.00;98799.16;5109579;28;20102;-75
2021/12/22 04:16:35;;;;;;;35.65;19.38;;;;;;;-0.46;100.00;98805.34;5109502;28;20434;-75
2021/12/22 04:19:01;;;;;;;31.38;17.35;;;;;;;-0.50;100.00;98804.13;5109679;28;20028;-77
2021/12/22 04:21:26;;;;;;;34.85;18.33;;;;;;;-0.66;100.00;98810.69;5109495;28;20038;-77
2021/12/22 04:23:51;;;;;;;31.40;18.27;;;;;;;-0.74;100.00;98814.38;5110006;28;20028;-75
2021/12/22 04:26:17;;;;;;;35.30;18.27;;;;;;;-0.70;100.00;98820.16;5109412;28;20053;-74
2021/12/22 04:28:42;;;;;;;33.70;17.15;;;;;;;-0.79;100.00;98811.47;5109704;28;20024;-76
2021/12/22 04:31:08;;;;;;;35.38;18.25;;;;;;;-0.71;100.00;98819.34;5109338;28;20749;-76
2021/12/22 04:33:33;;;;;;;37.65;18.67;;;;;;;-0.66;100.00;98810.69;5109715;28;20119;-76
2021/12/22 04:35:59;;;;;;;32.08;18.10;;;;;;;-0.74;100.00;98818.91;5105488;28;20027;-75
2021/12/22 04:38:25;;;;;;;40.28;17.48;;;;;;;-0.75;100.00;98811.91;5108239;28;20023;-77
2021/12/22 04:40:51;;;;;;;30.17;16.88;;;;;;;-0.68;100.00;98823.47;5110459;28;20032;-75
2021/12/22 04:43:16;;;;;;;33.58;17.40;;;;;;;-0.72;100.00;98830.31;5112451;28;20077;-77
2021/12/22 04:45:42;;;;;;;33.33;17.95;;;;;;;-0.77;100.00;98830.06;5113092;28;20507;-76
2021/12/22 04:48:08;;;;;;;32.45;17.67;;;;;;;-0.68;100.00;98824.31;5112775;28;20072;-75
2021/12/22 04:50:35;;;;;;;32.38;16.17;;;;;;;-0.77;100.00;98833.56;5112420;27;20016;-75
2021/12/22 04:53:06;;;;;;;31.58;16.92;;;;;;;-0.75;100.00;98833.38;5111109;28;20567;-76
2021/12/22 04:55:32;;;;;;;33.78;16.38;;;;;;;-0.77;100.00;98828.19;5113178;28;20055;-77
2021/12/22 04:57:59;;;;;;;32.15;17.10;;;;;;;-0.83;100.00;98825.50;5113776;28;20066;-76
2021/12/22 05:00:28;;;;;;;32.03;17.15;;;;;;;-0.87;100.00;98829.59;5114906;28;20083;-77
2021/12/22 05:02:54;;;;;;;37.80;17.45;;;;;;;-0.80;100.00;98836.66;5114229;28;20039;-77
2021/12/22 05:05:20;;;;;;;32.22;17.85;;;;;;;-0.85;100.00;98827.56;5111642;28;20016;-75
2021/12/22 05:07:47;;;;;;;29.10;16.52;;;;;;;-0.83;100.00;98826.31;5112561;28;20540;-74
2021/12/22 05:10:14;;;;;;;29.67;15.70;;;;;;;-0.78;100.00;98828.38;5111412;28;20115;-77
2021/12/22 05:12:40;;;;;;;32.13;18.02;;;;;;;-0.71;100.00;98829.25;5111600;28;20032;-77
2021/12/22 05:15:06;;;;;;;33.03;16.95;;;;;;;-0.71;100.00;98832.75;5111502;28;20038;-76
2021/12/22 05:18:00;;;;;;;31.70;16.65;;;;;;;-0.77;100.00;98830.06;5112704;28;20035;-77
2021/12/22 05:20:24;;;;;;;34.30;17.50;;;;;;;-0.87;100.00;98838.50;5112666;28;20085;-76
2021/12/22 05:22:50;;;;;;;30.67;17.42;;;;;;;-0.84;100.00;98839.94;5111454;28;20070;-77
2021/12/22 05:25:16;;;;;;;27.80;16.17;;;;;;;-0.81;100.00;98844.91;5109476;28;20023;-75
2021/12/22 05:27:44;;;;;;;27.80;15.82;;;;;;;-0.81;100.00;98839.53;5104903;28;20031;-75
2021/12/22 05:30:12;;;;;;;32.08;15.77;;;;;;;-0.82;100.00;98844.09;5106656;28;20035;-74
2021/12/22 05:32:37;;;;;;;32.08;15.98;;;;;;;-0.87;100.00;98846.53;5110489;28;20369;-75
2021/12/22 05:35:07;;;;;;;32.75;15.40;;;;;;;-0.88;100.00;98852.97;5108371;28;20093;-75
2021/12/22 05:37:32;;;;;;;27.40;16.15;;;;;;;-0.93;100.00;98841.13;5107076;28;20468;-75
2021/12/22 05:39:58;;;;;;;32.75;16.17;;;;;;;-0.89;100.00;98853.97;5109628;28;20024;-75
2021/12/22 05:42:25;;;;;;;30.92;16.15;;;;;;;-0.97;100.00;98840.72;5111098;28;20055;-76
2021/12/22 05:44:51;;;;;;;30.02;15.65;;;;;;;-0.92;100.00;98853.53;5109254;28;20023;-81
2021/12/22 05:47:16;;;;;;;30.23;14.43;;;;;;;-0.97;100.00;98853.31;5117554;28;20047;-81
2021/12/22 05:49:43;;;;;;;27.02;15.00;;;;;;;-0.93;100.00;98862.63;5126908;28;20031;-84
2021/12/22 05:52:09;;;;;;;24.92;15.13;;;;;;;-1.02;100.00;98861.13;5120434;28;20028;-84
2021/12/22 05:54:35;;;;;;;33.35;16.23;;;;;;;-0.96;100.00;98858.47;5119145;28;20347;-77
2021/12/22 05:57:00;;;;;;;27.67;14.80;;;;;;;-0.90;100.00;98867.59;5113835;28;20027;-74
2021/12/22 05:59:25;;;;;;;32.45;15.18;;;;;;;-0.90;100.00;98862.22;5111562;28;20027;-77
2021/12/22 06:01:51;;;;;;;28.30;15.13;;;;;;;-0.88;100.00;98870.91;5111178;28;20027;-81
2021/12/22 06:04:16;;;;;;;28.67;15.27;;;;;;;-0.87;100.00;98867.19;5114485;28;20031;-79
2021/12/22 06:06:43;;;;;;;27.35;15.60;;;;;;;-0.87;100.00;98877.94;5112754;28;20035;-74
2021/12/22 06:09:08;;;;;;;30.95;16.38;;;;;;;-0.90;100.00;98878.31;5114924;28;20110;-79
2021/12/22 06:11:34;;;;;;;34.28;15.77;;;;;;;-0.93;100.00;98865.31;5111648;28;20118;-81
2021/12/22 06:14:02;;;;;;;31.00;15.82;;;;;;;-0.88;100.00;98879.81;5109974;28;20015;-75
2021/12/22 06:16:30;;;;;;;34.65;16.38;;;;;;;-0.84;100.00;98881.03;5111714;28;20057;-76
2021/12/22 06:19:02;;;;;;;36.33;16.75;;;;;;;-0.80;100.00;98890.38;5111468;28;20072;-77
2021/12/22 06:21:29;;;;;;;33.08;17.33;;;;;;;-0.82;100.00;98889.75;5112962;28;20392;-75
2021/12/22 06:23:55;;;;;;;39.63;17.83;;;;;;;-0.79;100.00;98891.19;5111695;28;20079;-76
2021/12/22 06:26:20;;;;;;;34.88;17.02;;;;;;;-0.73;100.00;98893.09;5110105;28;20042;-77
2021/12/22 06:28:46;;;;;;;35.40;16.55;;;;;;;-0.70;100.00;98892.69;5111774;28;20042;-77
2021/12/22 06:31:11;;;;;;;30.10;15.07;;;;;;;-0.70;100.00;98898.06;5113326;28;20069;-76
2021/12/22 06:33:36;;;;;;;36.15;17.02;;;;;;;-0.70;100.00;98901.56;5111194;28;20020;-75
2021/12/22 06:36:02;;;;;;;29.38;14.68;;;;;;;-0.65;100.00;98898.28;5111727;28;20027;-78
2021/12/22 06:38:28;;;;;;;28.45;16.33;;;;;;;-0.68;100.00;98904.03;5117898;28;20015;-81
2021/12/22 06:40:53;;;;;;;32.40;15.85;;;;;;;-0.61;100.00;98902.22;5117930;28;20492;-82
2021/12/22 06:43:19;;;;;;;32.42;16.55;;;;;;;-0.66;100.00;98913.56;5116153;28;20112;-82
2021/12/22 06:45:44;;;;;;;28.08;15.13;;;;;;;-0.69;100.00;98907.78;5116478;28;20035;-80
2021/12/22 06:48:10;;;;;;;27.60;15.13;;;;;;;-0.68;100.00;98912.09;5117898;28;20089;-81
2021/12/22 06:50:35;;;;;;;26.27;13.85;;;;;;;-0.66;100.00;98913.56;5117435;28;20543;-81
2021/12/22 06:53:01;;;;;;;28.27;15.00;;;;;;;-0.65;100.00;98914.38;5117744;28;20090;-84
2021/12/22 06:55:26;;;;;;;31.00;15.05;;;;;;;-0.65;100.00;98919.75;5115582;28;20051;-81
2021/12/22 06:57:52;;;;;;;27.25;13.73;;;;;;;-0.59;100.00;98921.63;5117721;28;20039;-82
2021/12/22 07:00:17;;;;;;;22.48;11.95;;;;;;;-0.66;100.00;98928.88;5116621;28;20028;-81
2021/12/22 07:02:43;;;;;;;26.35;13.77;;;;;;;-0.62;100.00;98920.19;5116646;28;20106;-83
2021/12/22 07:05:13;;;;;;;25.83;13.25;;;;;;;-0.51;100.00;98931.41;5113058;28;20100;-82
2021/12/22 07:07:39;;;;;;;24.42;13.02;;;;;;;-0.43;100.00;98933.91;5116315;28;20042;-83
2021/12/22 07:10:08;;;;;;;30.83;13.65;;;;;;;-0.45;100.00;98933.28;5115756;28;20023;-82
2021/12/22 07:12:35;;;;;;;25.05;13.82;;;;;;;-0.44;100.00;98930.41;5121976;28;20024;-82
2021/12/22 07:15:03;;;;;;;25.88;13.20;;;;;;;-0.38;100.00;98929.59;5118366;27;20047;-83
2021/12/22 07:17:29;;;;;;;25.98;13.27;;;;;;;-0.31;100.00;98938.50;5114323;28;20042;-82
2021/12/22 07:19:54;;;;;;;27.00;13.48;;;;;;;-0.36;100.00;98942.81;5115450;28;20015;-83
2021/12/22 07:22:19;;;;;;;25.10;12.65;;;;;;;-0.39;100.00;98935.16;5114331;28;20033;-81
2021/12/22 07:24:45;;;;;;;24.13;13.23;;;;;;;-0.26;100.00;98949.47;5121661;28;20110;-78
2021/12/22 07:27:10;;;;;;;24.80;13.85;;;;;;;-0.24;100.00;98952.78;5121912;28;20039;-83
2021/12/22 07:29:37;;;;;;;25.67;13.27;;;;;;;-0.29;100.00;98952.56;5116952;28;20027;-86
2021/12/22 07:32:04;;;;;;;32.00;13.25;;;;;;;-0.29;100.00;98951.75;5103949;28;20027;-82
2021/12/22 07:34:38;;;;;;;28.60;14.95;;;;;;;-0.28;100.00;98959.59;5103237;28;20032;-82
2021/12/22 07:37:13;;;;;;;24.15;12.93;;;;;;;-0.29;100.00;98960.63;5102300;28;20038;-83
2021/12/22 07:39:39;;;;;;;22.45;12.52;;;;;;;-0.29;100.00;98967.88;5108811;28;20027;-79
2021/12/22 07:42:04;;;;;;;23.92;12.63;;;;;;;-0.23;100.00;98967.88;5100942;28;20040;-82
2021/12/22 07:44:30;;;;;;;24.20;13.32;;;;;;;-0.30;100.00;98960.81;5106545;28;20475;-83
2021/12/22 07:46:55;;;;;;;24.83;13.75;;;;;;;-0.34;100.00;98970.31;5106881;28;20115;-76
2021/12/22 07:49:20;;;;;;;26.45;14.57;;;;;;;-0.41;100.00;98974.84;5112434;28;20004;-79
2021/12/22 07:51:46;;;;;;;22.55;12.55;;;;;;;-0.34;100.00;98979.19;5104317;28;20024;-85
2021/12/22 07:54:11;;;;;;;22.58;12.77;;;;;;;-0.25;100.00;98972.63;5100727;28;20044;-80
2021/12/22 07:56:37;;;;;;;26.20;13.32;;;;;;;-0.21;100.00;98981.94;5100460;28;20028;-82
2021/12/22 07:59:03;;;;;;;27.60;13.90;;;;;;;-0.27;100.00;98977.38;5099169;28;20044;-83
2021/12/22 08:01:30;;;;;;;30.30;13.75;;;;;;;-0.32;100.00;98985.22;5099162;28;20036;-84
2021/12/22 08:03:55;;;;;;;22.48;12.55;;;;;;;-0.28;100.00;98982.97;5096897;28;20508;-80
2021/12/22 08:06:21;;;;;;;23.35;13.35;;;;;;;-0.21;100.00;98981.94;5095334;28;20020;-81
2021/12/22 08:08:47;;;;;;;22.60;12.68;;;;;;;-0.25;100.00;98996.00;5096990;28;20473;-81
2021/12/22 08:11:13;;;;;;;26.05;12.45;;;;;;;-0.28;100.00;98988.34;5096058;28;20020;-83
2021/12/22 08:13:38;;;;;;;22.58;11.45;;;;;;;-0.21;100.00;98984.63;5095998;28;20020;-83
2021/12/22 08:16:05;;;;;;;23.05;11.48;;;;;;;0.00;100.00;99003.31;5098474;28;20036;-82
2021/12/22 08:18:30;;;;;;;25.63;11.88;;;;;;;-0.02;100.00;98999.19;5096295;28;20039;-81
2021/12/22 08:20:56;;;;;;;21.50;11.77;;;;;;;0.15;100.00;98997.78;5096506;28;20032;-82
2021/12/22 08:23:21;;;;;;;21.98;12.45;;;;;;;0.29;100.00;99004.00;5097509;28;20115;-77
2021/12/22 08:25:47;;;;;;;30.23;12.65;;;;;;;0.47;100.00;99012.34;5097103;28;20115;-81
2021/12/22 08:28:13;;;;;;;22.75;12.50;;;;;;;0.39;100.00;99007.13;5097169;28;20105;-83
2021/12/22 08:30:39;;;;;;;21.85;11.55;;;;;;;0.33;100.00;99010.66;5102258;28;20410;-85
2021/12/22 08:33:09;;;;;;;21.73;12.10;;;;;;;0.29;100.00;99020.97;5120419;28;20368;-85
2021/12/22 08:38:50;;;;;;;23.85;11.77;;;;;;;0.26;100.00;99009.78;5120089;28;20102;-83
2021/12/22 08:41:06;;;;;;;23.63;12.15;;;;;;;0.35;100.00;99019.34;5123150;28;20038;-83
2021/12/22 08:43:31;;;;;;;20.63;12.00;;;;;;;0.42;99.86;99029.09;5121807;28;20043;-83
2021/12/22 08:45:57;;;;;;;24.33;12.63;;;;;;;0.45;99.79;99019.78;5120662;28;20058;-82
2021/12/22 08:48:22;;;;;;;27.25;13.25;;;;;;;0.52;98.71;99026.00;5122427;28;20115;-84
2021/12/22 08:50:48;;;;;;;24.83;12.75;;;;;;;0.56;98.20;99032.66;5117494;28;20058;-83
2021/12/22 08:53:13;;;;;;;24.10;12.88;;;;;;;0.54;98.20;99029.31;5119829;28;20032;-81
2021/12/22 08:55:38;;;;;;;23.30;11.98;;;;;;;0.51;98.69;99029.72;5121395;28;20108;-85
2021/12/22 08:58:04;;;;;;;21.95;12.43;;;;;;;0.52;98.08;99042.97;5118519;28;20039;-81
2021/12/22 09:00:31;;;;;;;23.58;13.20;;;;;;;0.57;97.98;99045.03;5118979;28;20019;-80
2021/12/22 09:02:57;;;;;;;26.00;13.00;;;;;;;0.60;98.32;99044.63;5117587;28;20045;-84
2021/12/22 09:05:23;;;;;;;31.50;14.18;;;;;;;0.59;97.45;99034.94;5118680;28;20476;-82
2021/12/22 09:07:48;;;;;;;28.25;12.93;;;;;;;0.47;98.15;99044.63;5120311;28;20096;-82
2021/12/22 09:10:14;;;;;;;30.65;13.27;;;;;;;0.38;99.01;99033.22;5120182;28;20106;-80
2021/12/22 09:12:39;;;;;;;27.83;14.10;;;;;;;0.52;98.76;99036.78;5120739;28;20058;-81
2021/12/22 09:15:05;;;;;;;30.63;15.35;;;;;;;0.44;98.63;99042.31;5122669;28;20024;-80
2021/12/22 09:17:31;;;;;;;27.58;14.60;;;;;;;0.58;99.30;99046.72;5120449;28;20059;-83
2021/12/22 09:19:56;;;;;;;26.77;14.68;;;;;;;0.69;98.00;99048.78;5118291;28;20074;-77
2021/12/22 09:22:23;;;;;;;29.85;13.98;;;;;;;0.71;98.45;99054.81;5120867;28;20027;-83
2021/12/22 09:24:48;;;;;;;27.13;14.35;;;;;;;0.64;98.11;99056.66;5122463;28;20055;-83
2021/12/22 09:27:14;;;;;;;26.08;14.45;;;;;;;0.72;98.54;99064.53;5122448;28;20028;-84
2021/12/22 09:29:39;;;;;;;28.38;14.45;;;;;;;0.72;98.90;99052.97;5116193;28;20035;-81
2021/12/22 09:32:05;;;;;;;25.38;14.13;;;;;;;0.88;97.89;99050.69;5115569;28;20564;-79
2021/12/22 09:34:31;;;;;;;26.90;14.18;;;;;;;0.85;96.89;99047.56;5120573;28;20038;-84
2021/12/22 09:36:56;;;;;;;28.05;15.13;;;;;;;0.91;96.78;99058.34;5128122;28;20036;-82
2021/12/22 09:39:24;;;;;;;24.52;13.02;;;;;;;0.84;96.20;99046.75;5129440;28;20031;-83
2021/12/22 09:41:50;;;;;;;29.90;14.65;;;;;;;1.00;96.49;99043.63;5122972;28;20036;-79
2021/12/22 09:44:16;;;;;;;26.42;14.10;;;;;;;1.07;95.19;99040.94;5114200;28;21293;-84
2021/12/22 09:46:42;;;;;;;28.55;13.90;;;;;;;1.12;95.89;99045.72;5122576;28;20036;-83
2021/12/22 09:49:36;;;;;;;27.30;15.05;;;;;;;1.06;95.50;99048.22;5121214;27;20036;-80
2021/12/22 09:54:51;;;;;;;28.98;15.88;;;;;;;1.27;95.65;99046.31;5116373;28;20043;-83
2021/12/22 09:57:18;;;;;;;28.73;15.50;;;;;;;1.22;94.92;99040.75;5110273;28;20037;-82
2021/12/22 09:59:48;;;;;;;30.13;14.88;;;;;;;1.18;95.80;99034.09;5113548;28;20028;-77
2021/12/22 10:02:16;;;;;;;28.25;15.45;;;;;;;1.30;95.06;99045.91;5115115;28;20028;-79
2021/12/22 10:04:41;;;;;;;35.28;16.10;;;;;;;1.25;95.24;99043.03;5111843;28;20067;-86
2021/12/22 10:07:25;;;;;;;32.47;16.08;;;;;;;1.10;96.95;99027.06;5113162;28;20043;-84
2021/12/22 10:09:51;;;;;;;35.20;16.73;;;;;;;1.11;97.73;99025.19;5112564;28;20038;-81
2021/12/22 10:12:20;;;;;;;30.00;15.85;;;;;;;1.28;97.10;99046.13;5114819;28;20019;-81
2021/12/22 10:15:07;;;;;;;28.48;16.15;;;;;;;1.41;96.62;99031.81;5118074;28;20032;-83
2021/12/22 10:17:42;;;;;;;30.95;15.85;;;;;;;1.49;95.37;99036.97;5114611;28;20397;-85
2021/12/22 10:20:17;;;;;;;36.28;16.45;;;;;;;1.51;95.03;99034.88;5116047;28;20054;-82
2021/12/22 10:22:48;;;;;;;28.23;15.65;;;;;;;1.35;95.96;99024.53;5113499;28;20028;-84
2021/12/22 10:25:17;;;;;;;28.55;16.20;;;;;;;1.40;96.71;99022.06;5115788;28;20032;-81
2021/12/22 10:27:45;;;;;;;39.05;17.27;;;;;;;1.42;95.89;99022.66;5117222;28;20039;-82
2021/12/22 10:30:47;;;;;;;31.95;16.48;;;;;;;1.43;96.19;99019.78;5114576;28;20020;-81
2021/12/22 10:33:24;;;;;;;39.30;17.13;;;;;;;1.52;96.13;99017.66;5109357;28;20036;-80
2021/12/22 10:36:09;;;;;;;31.80;17.38;;;;;;;1.45;95.96;99022.25;5115512;28;20031;-80
2021/12/22 10:38:34;;;;;;;36.28;18.55;;;;;;;1.45;96.53;99024.94;5116540;28;20024;-80
2021/12/22 10:41:11;;;;;;;39.05;17.83;;;;;;;1.41;97.00;99011.06;5107843;28;20027;-81
2021/12/22 10:43:42;;;;;;;37.90;18.60;;;;;;;1.48;96.98;99006.47;5118289;28;20101;-82
2021/12/22 10:46:14;;;;;;;31.33;17.83;;;;;;;1.58;97.40;99014.13;5117275;28;20114;-85
2021/12/22 10:51:33;;;;;;;33.85;17.23;;;;;;;1.59;96.67;99005.00;5110454;28;20092;-82
2021/12/22 10:54:00;;;;;;;31.97;16.77;;;;;;;1.57;95.58;99009.75;5113300;28;20059;-80
2021/12/22 10:56:34;;;;;;;31.30;16.17;;;;;;;1.63;95.95;99007.06;5117837;28;20032;-80
2021/12/22 10:59:05;;;;;;;32.53;15.88;;;;;;;1.73;95.80;99003.91;5101740;28;20054;-83
2021/12/22 11:01:30;;;;;;;38.28;17.05;;;;;;;1.65;95.76;99000.63;5108037;28;20042;-85
2021/12/22 11:04:03;;;;;;;37.75;18.05;;;;;;;1.60;96.06;99004.78;5126812;28;20023;-85
2021/12/22 11:06:31;;;;;;;36.72;17.23;;;;;;;1.74;95.03;98997.50;5119614;28;20049;-84
2021/12/22 11:09:13;;;;;;;37.08;18.23;;;;;;;1.71;95.59;98999.78;5116391;28;20054;-79
2021/12/22 11:11:46;;;;;;;38.78;17.85;;;;;;;1.61;95.62;98995.66;5114994;28;20043;-79
2021/12/22 11:14:17;;;;;;;31.10;17.52;;;;;;;1.66;96.33;98995.00;5118105;28;20031;-81
2021/12/22 11:16:55;;;;;;;33.53;18.08;;;;;;;1.72;96.39;98996.88;5108076;28;20039;-82
2021/12/22 11:19:21;;;;;;;37.53;20.15;;;;;;;1.71;96.10;98989.81;5114307;28;20077;-77
2021/12/22 11:22:07;;;;;;;35.83;18.25;;;;;;;1.76;95.65;98992.69;5116990;28;20034;-78
2021/12/22 11:24:35;;;;;;;29.13;17.30;;;;;;;1.78;95.68;98990.63;5119660;28;20860;-83
2021/12/22 11:27:01;;;;;;;34.53;17.75;;;;;;;1.78;95.64;98990.63;5115626;28;20028;-82
2021/12/22 11:29:28;;;;;;;36.42;18.83;;;;;;;1.93;95.37;98991.19;5112490;28;20032;-85
2021/12/22 11:31:54;;;;;;;34.63;18.80;;;;;;;1.98;94.79;98980.56;5118000;28;20023;-82
2021/12/22 11:34:20;;;;;;;42.35;19.08;;;;;;;1.92;95.11;98980.59;5120316;28;20111;-80
2021/12/22 11:36:46;;;;;;;38.28;19.15;;;;;;;1.96;94.40;98988.06;5115553;28;20040;-76